Flight Track Log - Related Links

Times and Time Zones

All times are in EDT time to prevent confusion due to time zone crossing. See the ASQ4096 flight status page for this flight to view local times or setup timezone preferences in your user account.

Time Position Orientation Groundspeed Altitude Reporting Facility
EDT Latitude Longitude Course Direction KTS MPH feet Rate Location/Type
Sun 10:47:53 PM 29.9489 -95.3403 North 190 219 700  Level Houston Center
Sun 10:48:41 PM 29.9156 -95.3661 214° Southwest 202 232 2,200 1,650 Climbing Houston Center
Sun 10:49:13 PM 29.9308 -95.3856 312° West 215 247 2,900 1,377 Climbing Houston Center
Sun 10:49:42 PM 29.9628 -95.3772 13° North 231 266 3,600 1,869 Climbing Houston Center
Sun 10:50:14 PM 29.9811 -95.3511 51° Northeast 226 260 4,800 2,557 Climbing Houston Center
Sun 10:50:43 PM 29.9944 -95.3106 69° East 240 276 6,200 2,262 Climbing Houston Center
Sun 10:51:00 PM 30.3936 -95.0092 30° Northeast  Level Estimated
Sun 10:51:15 PM 30.0108 -95.2794 59° Northeast 249 287 7,100  Level Houston Center
Sun 10:52:00 PM 30.4957 -94.9258 27° Northeast  Level Estimated
Sun 10:52:16 PM 30.0669 -95.2322 36° Northeast 249 287 9,700  Level Houston Center
Sun 10:53:00 PM 30.6193 -94.9044 North  Level FlightAware Approximate
Sun 10:53:17 PM 30.1411 -95.2097 15° North 273 314 10,400  Level Houston Center
Sun 10:54:18 PM 30.2289 -95.1739 19° North 334 384 11,000 843 Climbing Houston Center
Sun 10:55:18 PM 30.3097 -95.1047 36° Northeast 359 413 12,100 1,140 Climbing Houston Center
Sun 10:56:19 PM 30.3917 -95.0336 37° Northeast 366 421 13,300 1,279 Climbing Houston Center
Sun 10:57:20 PM 30.4808 -94.9567 37° Northeast 367 422 14,700 1,328 Climbing Houston Center
Sun 10:58:21 PM 30.5642 -94.8847 37° Northeast 373 429 16,000 1,230 Climbing Houston Center
Sun 10:59:22 PM 30.6475 -94.8122 37° Northeast 374 430 17,200 1,131 Climbing Houston Center
Sun 11:00:23 PM 30.7308 -94.7408 36° Northeast 374 430 18,300 1,091 Climbing Houston Center
Sun 11:01:23 PM 30.8144 -94.6678 37° Northeast 377 434 19,400 1,140 Climbing Houston Center
Sun 11:02:24 PM 30.8972 -94.5953 37° Northeast 376 433 20,600 1,180 Climbing Houston Center
Sun 11:03:25 PM 30.9972 -94.5075 37° Northeast 378 435 21,800 1,082 Climbing Houston Center
Sun 11:04:26 PM 31.0822 -94.4328 37° Northeast 384 442 22,800 942 Climbing Houston Center
Sun 11:05:26 PM 31.1686 -94.3586 36° Northeast 388 447 23,700 942 Climbing Houston Center
Sun 11:06:27 PM 31.2542 -94.2825 37° Northeast 390 449 24,700 984 Climbing Houston Center
Sun 11:07:28 PM 31.3394 -94.2072 37° Northeast 387 445 25,700 1,033 Climbing Houston Center
Sun 11:08:29 PM 31.4236 -94.1328 37° Northeast 383 441 26,800 1,140 Climbing Houston Center
Sun 11:09:29 PM 31.5075 -94.0594 37° Northeast 379 436 28,000 1,240 Climbing Houston Center
Sun 11:10:30 PM 31.5897 -93.9864 37° Northeast 374 430 29,300 1,230 Climbing Houston Center
Sun 11:11:31 PM 31.6711 -93.9144 37° Northeast 369 425 30,500 1,140 Climbing Houston Center
Sun 11:12:31 PM 31.7503 -93.8428 38° Northeast 363 418 31,600 1,140 Climbing Houston Center
Sun 11:13:32 PM 31.8428 -93.7597 37° Northeast 364 419 32,800 1,033 Climbing Houston Center
Sun 11:14:33 PM 31.9244 -93.6867 37° Northeast 366 421 33,700 793 Climbing Houston Center
Sun 11:15:33 PM 32.0069 -93.6125 37° Northeast 370 426 34,400 595 Climbing Houston Center
Sun 11:16:34 PM 32.0936 -93.5350 37° Northeast 382 440 34,900 275 Climbing Houston Center
Sun 11:17:44 PM 32.1906 -93.4417 39° Northeast 388 447 35,000 46 Climbing Fort Worth Center
Sun 11:18:45 PM 32.2878 -93.3564 37° Northeast 407 468 35,000  Level Fort Worth Center
Sun 11:19:44 PM 32.3872 -93.2633 38° Northeast 433 498 35,000  Level Fort Worth Center
Sun 11:21:00 PM 32.4947 -93.1558 40° Northeast  Level FlightAware Approximate
Sun 11:21:44 PM 32.5958 -93.0736 40° Northeast 464 534 35,000  Level Fort Worth Center
Sun 11:22:44 PM 32.7031 -92.9772 37° Northeast 477 549 35,000  Level Fort Worth Center
Sun 11:23:44 PM 32.8103 -92.8806 37° Northeast 477 549 35,000  Level Fort Worth Center
Sun 11:24:44 PM 32.9131 -92.7836 38° Northeast 477 549 35,000  Level Fort Worth Center
Sun 11:25:44 PM 33.0119 -92.6944 37° Northeast 459 528 35,000  Level Fort Worth Center
Sun 11:26:44 PM 33.1047 -92.6078 38° Northeast 442 509 35,000  Level Fort Worth Center
Sun 11:28:54 PM 33.3169 -92.4131 37° Northeast 444 511 35,000  Level Memphis Center
Sun 11:29:54 PM 33.4164 -92.3183 38° Northeast 449 517 35,000  Level Memphis Center
Sun 11:30:54 PM 33.5158 -92.2283 37° Northeast 449 517 35,000  Level Memphis Center
Sun 11:31:54 PM 33.6175 -92.1308 39° Northeast 455 524 35,000  Level Memphis Center
Sun 11:32:54 PM 33.7169 -92.0378 38° Northeast 450 518 35,000  Level Memphis Center
Sun 11:33:54 PM 33.8183 -91.9425 38° Northeast 450 518 35,000  Level Memphis Center
Sun 11:34:54 PM 33.9197 -91.8467 38° Northeast 455 524 35,000  Level Memphis Center
Sun 11:35:54 PM 34.0208 -91.7531 37° Northeast 455 524 35,000  Level Memphis Center
Sun 11:36:54 PM 34.1181 -91.6517 41° Northeast 460 529 35,000  Level Memphis Center
Sun 11:37:54 PM 34.2169 -91.5578 38° Northeast 460 529 35,000  Level Memphis Center
Sun 11:38:54 PM 34.3222 -91.4661 36° Northeast 455 524 35,000  Level Memphis Center
Sun 11:39:54 PM 34.4253 -91.3819 34° Northeast 455 524 35,000  Level Memphis Center
Sun 11:40:54 PM 34.5261 -91.2950 35° Northeast 449 517 35,000  Level Memphis Center
Sun 11:41:54 PM 34.6311 -91.2078 34° Northeast 449 517 35,000  Level Memphis Center
Sun 11:42:54 PM 34.7444 -91.1103 35° Northeast 449 517 35,000  Level Memphis Center
Sun 11:43:54 PM 34.8450 -91.0250 35° Northeast 449 517 35,000  Level Memphis Center
Sun 11:44:54 PM 34.9475 -90.9372 35° Northeast 449 517 35,000  Level Memphis Center
Sun 11:45:54 PM 35.0503 -90.8492 35° Northeast 449 517 35,000  Level Memphis Center
Sun 11:46:54 PM 35.1528 -90.7608 35° Northeast 449 517 35,000  Level Memphis Center
Sun 11:47:54 PM 35.2594 -90.6697 35° Northeast 449 517 35,000  Level Memphis Center
Sun 11:48:54 PM 35.3639 -90.5761 36° Northeast 457 526 35,000  Level Memphis Center
Sun 11:49:54 PM 35.4619 -90.4922 35° Northeast 465 535 35,000  Level Memphis Center
Sun 11:50:54 PM 35.5747 -90.3928 36° Northeast 478 550 35,000  Level Memphis Center
Sun 11:51:54 PM 35.6853 -90.2931 36° Northeast 483 556 35,000  Level Memphis Center
Sun 11:52:54 PM 35.7997 -90.1881 37° Northeast 477 549 35,000  Level Memphis Center
Sun 11:53:54 PM 35.9103 -90.0931 35° Northeast 483 556 35,000  Level Memphis Center
Sun 11:54:54 PM 36.0225 -89.9925 36° Northeast 483 556 35,000  Level Memphis Center
Sun 11:55:54 PM 36.1328 -89.8969 35° Northeast 483 556 35,000  Level Memphis Center
Sun 11:56:54 PM 36.2428 -89.7986 36° Northeast 483 556 35,000  Level Memphis Center
Sun 11:59:13 PM 36.4856 -89.5797 36° Northeast 494 568 35,000  Level Kansas City Center
Mon 12:00:14 AM 36.5969 -89.4792 36° Northeast 496 571 35,000  Level Kansas City Center
Mon 12:01:15 AM 36.7086 -89.3769 36° Northeast 499 574 35,000  Level Kansas City Center
Mon 12:02:15 AM 36.8303 -89.2661 36° Northeast 498 573 35,000  Level Kansas City Center
Mon 12:03:16 AM 36.9428 -89.1633 36° Northeast 498 573 35,000  Level Kansas City Center
Mon 12:03:49 AM 37.0183 -89.0931 37° Northeast 488 562 35,000 319 Level Indianapolis Center
Mon 12:04:50 AM 37.1269 -88.9931 36° Northeast 482 555 35,500 744 Climbing Indianapolis Center
Mon 12:05:50 AM 37.2219 -88.9064 36° Northeast 467 537 36,500 750 Climbing Indianapolis Center
Mon 12:06:50 AM 37.3264 -88.8092 36° Northeast 463 533 37,000 248 Climbing Indianapolis Center
Mon 12:07:51 AM 37.4342 -88.7078 37° Northeast 476 548 37,000  Level Indianapolis Center
Mon 12:08:51 AM 37.5481 -88.6019 36° Northeast 501 577 37,000  Level Indianapolis Center
Mon 12:09:51 AM 37.6647 -88.4919 37° Northeast 517 595 37,000  Level Indianapolis Center
Mon 12:10:52 AM 37.7844 -88.3800 36° Northeast 530 610 37,000  Level Indianapolis Center
Mon 12:11:44 AM 37.8800 -88.2886 37° Northeast 534 615 37,000  Level Kansas City Center
Mon 12:12:43 AM 38.0028 -88.1714 37° Northeast 545 627 37,000  Level Kansas City Center
Mon 12:13:44 AM 38.1256 -88.0558 37° Northeast 546 628 37,000  Level Kansas City Center
Mon 12:14:45 AM 38.2469 -87.9419 36° Northeast 543 625 37,000  Level Kansas City Center
Mon 12:15:43 AM 38.3664 -87.8261 37° Northeast 539 620 37,000  Level Kansas City Center
Mon 12:16:43 AM 38.4861 -87.7100 37° Northeast 535 616 37,000  Level Kansas City Center
Mon 12:17:54 AM 38.6283 -87.5722 37° Northeast 531 611 37,000  Level Indianapolis Center
Mon 12:18:54 AM 38.7478 -87.4569 37° Northeast 530 610 37,000  Level Indianapolis Center
Mon 12:19:55 AM 38.8678 -87.3400 37° Northeast 535 616 37,000  Level Indianapolis Center
Mon 12:20:55 AM 38.9897 -87.2197 37° Northeast 544 626 37,000  Level Indianapolis Center
Mon 12:21:55 AM 39.1114 -87.1003 37° Northeast 546 628 37,000  Level Indianapolis Center
Mon 12:22:55 AM 39.2242 -86.9889 37° Northeast 547 629 37,000  Level Indianapolis Center
Mon 12:23:56 AM 39.3453 -86.8692 37° Northeast 550 633 37,000  Level Indianapolis Center
Mon 12:24:56 AM 39.4669 -86.7464 38° Northeast 553 636 37,000  Level Indianapolis Center
Mon 12:25:56 AM 39.5883 -86.6244 38° Northeast 553 636 37,000  Level Indianapolis Center
Mon 12:26:56 AM 39.7117 -86.5014 37° Northeast 555 639 37,000  Level Indianapolis Center
Mon 12:27:57 AM 39.8381 -86.3728 38° Northeast 558 642 37,000  Level Indianapolis Center
Mon 12:28:57 AM 39.9631 -86.2461 38° Northeast 558 642 37,000  Level Indianapolis Center
Mon 12:29:57 AM 40.0844 -86.1200 38° Northeast 557 641 37,000  Level Indianapolis Center
Mon 12:30:57 AM 40.1972 -85.9817 43° Northeast 556 640 37,000  Level Indianapolis Center
Mon 12:31:58 AM 40.3111 -85.8414 43° Northeast 559 643 37,000 -694 Level Indianapolis Center
Mon 12:32:58 AM 40.4228 -85.7011 44° Northeast 558 642 35,600 -1,750 Descending Indianapolis Center
Mon 12:33:58 AM 40.5331 -85.5608 44° Northeast 554 638 33,500 -2,250 Descending Indianapolis Center
Mon 12:34:58 AM 40.6444 -85.4183 44° Northeast 560 644 31,100 -2,400 Descending Indianapolis Center
Mon 12:35:58 AM 40.7525 -85.2828 44° Northeast 543 625 28,700 -2,430 Descending Indianapolis Center
Mon 12:36:59 AM 40.8553 -85.1472 45° Northeast 526 605 26,200 -2,479 Descending Indianapolis Center
Mon 12:37:59 AM 40.9625 -85.0111 44° Northeast 533 613 23,700 -2,250 Descending Indianapolis Center
Mon 12:38:59 AM 41.0681 -84.8758 44° Northeast 512 589 21,700 -1,350 Descending Indianapolis Center
Mon 12:39:59 AM 41.1672 -84.7453 45° Northeast 503 579 21,000 -424 Descending Indianapolis Center
Mon 12:40:38 AM 41.2381 -84.6556 44° Northeast 508 585 21,000  Level Cleveland Center
Mon 12:41:20 AM 41.2978 -84.5764 45° Northeast 511 588 21,000  Level Chicago Center
Mon 12:42:20 AM 41.3983 -84.4453 44° Northeast 510 587 21,000 -446 Level Chicago Center
Mon 12:43:21 AM 41.4961 -84.3156 45° Northeast 502 578 20,100 -893 Descending Chicago Center
Mon 12:44:21 AM 41.5908 -84.1917 44° Northeast 484 557 19,200 -1,050 Descending Chicago Center
Mon 12:45:21 AM 41.6836 -84.0678 45° Northeast 477 549 18,000 -1,300 Descending Chicago Center
Mon 12:46:21 AM 41.7847 -83.9633 38° Northeast 463 533 16,600 -1,686 Descending Chicago Center
Mon 12:47:22 AM 41.8797 -83.8575 40° Northeast 448 516 14,600 -1,884 Descending Chicago Center
Mon 12:48:22 AM 41.9789 -83.7444 40° Northeast 455 524 12,800 -1,348 Descending Chicago Center
Mon 12:49:40 AM 42.0972 -83.6172 39° Northeast 437 503 11,500 -1,125 Descending Cleveland Center
Mon 12:49:42 AM 42.1206 -83.6000 29° Northeast 420 483 11,300 -1,000 Descending Cleveland Center
Mon 12:50:40 AM 42.1944 -83.5336 34° Northeast 401 461 10,500 -984 Descending Cleveland Center
Mon 12:50:43 AM 42.2106 -83.5228 26° Northeast 366 421 10,300 -1,300 Descending Cleveland Center
Mon 12:51:40 AM 42.2756 -83.4614 35° Northeast 358 412 9,200 -1,475 Descending Cleveland Center
Mon 12:51:44 AM 42.2872 -83.4547 23° Northeast 307 353 8,800 -2,400 Descending Cleveland Center
Mon 12:52:40 AM 42.3428 -83.4022 35° Northeast 300 345 6,800 -2,500 Descending Cleveland Center
Mon 12:52:44 AM 42.3547 -83.3939 27° Northeast 284 327 6,300 -2,500 Descending Cleveland Center
Mon 12:53:40 AM 42.4033 -83.3344 42° Northeast 287 330 4,300 -2,066 Descending Cleveland Center
Mon 12:53:45 AM 42.4067 -83.3219 70° East 270 311 4,200 -984 Descending Cleveland Center
Mon 12:54:41 AM 42.3856 -83.2436 110° East 261 300 3,300 -1,100 Descending Cleveland Center
Mon 12:54:45 AM 42.3775 -83.2358 145° Southeast 230 265 3,100 -300 Descending Cleveland Center
Mon 12:55:41 AM 42.3294 -83.2522 194° South 230 265 3,000 -197 Descending Cleveland Center
Mon 12:55:46 AM 42.3214 -83.2592 213° Southwest 204 235 2,900 -800 Descending Cleveland Center
Mon 12:56:41 AM 42.2883 -83.2833 208° Southwest 190 219 2,200 -787 Descending Cleveland Center
Mon 12:56:47 AM 42.2833 -83.2878 213° Southwest 142 163 2,100 -700 Descending Cleveland Center
Mon 12:57:41 AM 42.2539 -83.3075 206° Southwest 156 180 1,500 -800 Descending Cleveland Center
Mon 12:57:47 AM 42.2481 -83.3139 219° Southwest 139 160 1,300 -500 Descending Cleveland Center
Mon 12:58:41 AM 42.2239 -83.3300 206° Southwest 147 169 1,000 -333 Descending Cleveland Center

Login

Don't have an account? Register now (free) for customized features, flight alerts, and more!